Time;durP1;ratioP1;P1;durP2;ratioP2;P2;SDS_P1;SDS_P2;PMS_P1;PMS_P2;Temp;Humidity;BMP_temperature;BMP_pressure;BME280_temperature;BME280_humidity;BME280_pressure;Samples;Min_cycle;Max_cycle;Signal;HPM_P1;HPM_P2
2022/11/01 00:01:35;;;;;;;8.73;3.85;;;14.30;99.90;;;;;;5038945;28;20045;-71
2022/11/01 00:04:01;;;;;;;9.07;4.45;;;14.30;99.90;;;;;;5024877;28;20045;-71
2022/11/01 00:06:28;;;;;;;6.55;3.35;;;14.30;99.90;;;;;;5043212;28;20032;-71
2022/11/01 00:08:54;;;;;;;7.88;3.20;;;14.30;99.90;;;;;;5027596;28;20400;-72
2022/11/01 00:11:20;;;;;;;6.93;3.08;;;14.30;99.90;;;;;;5020438;28;20056;-71
2022/11/01 00:13:49;;;;;;;5.70;2.88;;;14.30;99.90;;;;;;5008584;28;20025;-72
2022/11/01 00:16:17;;;;;;;6.55;2.60;;;14.40;99.90;;;;;;5041481;28;20039;-71
2022/11/01 00:18:44;;;;;;;8.05;3.75;;;14.40;99.90;;;;;;5008991;28;20120;-71
2022/11/01 00:21:11;;;;;;;7.13;3.70;;;14.40;99.90;;;;;;5039694;28;20039;-71
2022/11/01 00:23:38;;;;;;;8.40;2.88;;;14.50;99.90;;;;;;5023089;28;20052;-72
2022/11/01 00:26:05;;;;;;;6.18;2.97;;;14.50;99.90;;;;;;5041131;28;20399;-72
2022/11/01 00:28:32;;;;;;;7.22;3.97;;;14.60;99.90;;;;;;5023672;28;20381;-71
2022/11/01 00:31:00;;;;;;;7.07;2.90;;;14.60;99.90;;;;;;5042082;28;20041;-71
2022/11/01 00:33:26;;;;;;;6.70;3.25;;;14.60;99.90;;;;;;5041786;28;20032;-73
2022/11/01 00:35:53;;;;;;;6.57;4.00;;;14.60;99.90;;;;;;5043549;28;20037;-72
2022/11/01 00:38:19;;;;;;;11.85;3.88;;;14.70;99.90;;;;;;5040317;28;20072;-74
2022/11/01 00:40:45;;;;;;;6.22;3.55;;;14.70;99.90;;;;;;5008776;28;20059;-72
2022/11/01 00:43:12;;;;;;;10.07;3.55;;;14.70;99.90;;;;;;5023159;28;20382;-72
2022/11/01 00:45:41;;;;;;;12.02;3.35;;;14.70;99.90;;;;;;5029902;28;20041;-72
2022/11/01 00:48:07;;;;;;;11.65;4.03;;;14.70;99.90;;;;;;5026387;28;20040;-72
2022/11/01 00:50:34;;;;;;;8.18;3.90;;;14.70;99.90;;;;;;5022450;28;20056;-72
2022/11/01 00:53:00;;;;;;;8.10;3.70;;;14.80;99.90;;;;;;5007620;28;20407;-73
2022/11/01 00:55:26;;;;;;;6.80;3.30;;;14.80;99.90;;;;;;5025272;28;20048;-72
2022/11/01 00:57:53;;;;;;;5.80;3.33;;;14.80;99.90;;;;;;5042500;28;20048;-73
2022/11/01 01:00:19;;;;;;;5.47;3.45;;;14.90;99.90;;;;;;5038872;28;20040;-71
2022/11/01 01:02:45;;;;;;;13.55;4.50;;;14.90;99.90;;;;;;5040749;28;20420;-72
2022/11/01 01:05:12;;;;;;;10.65;3.13;;;14.90;99.90;;;;;;5045189;28;20649;-73
2022/11/01 01:07:38;;;;;;;5.55;2.30;;;14.90;99.90;;;;;;5040460;28;20502;-73
2022/11/01 01:10:06;;;;;;;6.35;2.80;;;15.00;99.90;;;;;;5041007;28;20045;-73
2022/11/01 01:12:32;;;;;;;7.60;3.60;;;15.00;99.90;;;;;;5039466;28;20037;-73
2022/11/01 01:14:59;;;;;;;5.22;2.42;;;15.00;99.90;;;;;;5024461;28;20032;-73
2022/11/01 01:17:26;;;;;;;10.30;3.92;;;15.00;99.90;;;;;;5025459;28;20039;-73
2022/11/01 01:19:52;;;;;;;6.65;3.13;;;15.10;99.90;;;;;;5022149;28;20041;-72
2022/11/01 01:22:19;;;;;;;6.35;2.97;;;15.10;99.90;;;;;;5038604;28;20032;-72
2022/11/01 01:24:46;;;;;;;7.05;3.28;;;15.10;99.90;;;;;;5008334;28;20041;-72
2022/11/01 01:27:14;;;;;;;5.22;2.50;;;15.10;99.90;;;;;;5024254;28;20417;-72
2022/11/01 01:29:40;;;;;;;7.32;3.80;;;15.10;99.90;;;;;;5022535;28;20045;-72
2022/11/01 01:32:14;;;;;;;8.98;3.50;;;15.20;99.90;;;;;;5020208;28;20045;-72
2022/11/01 01:34:40;;;;;;;6.30;2.70;;;15.20;99.90;;;;;;5023734;28;20052;-72
2022/11/01 01:37:10;;;;;;;8.38;3.67;;;15.20;99.90;;;;;;5040954;28;20399;-72
2022/11/01 01:39:37;;;;;;;10.25;3.28;;;15.20;99.90;;;;;;5006550;28;20446;-71
2022/11/01 01:42:14;;;;;;;9.25;3.10;;;15.20;99.90;;;;;;5039038;28;20037;-73
2022/11/01 01:45:09;;;;;;;8.80;2.70;;;15.20;99.90;;;;;;5040712;28;20041;-72
2022/11/01 01:47:39;;;;;;;5.80;3.05;;;15.20;99.90;;;;;;5024093;28;20065;-72
2022/11/01 01:50:13;;;;;;;10.80;3.17;;;15.10;99.90;;;;;;5024288;28;20066;-73
2022/11/01 01:52:49;;;;;;;7.30;3.53;;;15.10;99.90;;;;;;5021674;28;20514;-72
2022/11/01 01:55:19;;;;;;;4.85;2.30;;;15.00;99.90;;;;;;5040079;28;20068;-73
2022/11/01 01:57:46;;;;;;;7.95;4.03;;;15.00;99.90;;;;;;5022444;28;20021;-72
2022/11/01 02:00:13;;;;;;;9.02;3.15;;;15.00;99.90;;;;;;5022142;28;20029;-72
2022/11/01 02:02:41;;;;;;;6.70;3.78;;;14.90;99.90;;;;;;5005415;28;20041;-72
2022/11/01 02:05:34;;;;;;;6.55;4.28;;;14.90;99.90;;;;;;5008023;28;20041;-72
2022/11/01 02:08:01;;;;;;;8.30;3.33;;;15.00;99.90;;;;;;5022817;28;20051;-72
2022/11/01 02:10:29;;;;;;;5.22;2.30;;;14.90;99.90;;;;;;5037232;28;20037;-72
2022/11/01 02:12:56;;;;;;;6.72;2.47;;;14.90;99.90;;;;;;5037567;28;20491;-71
2022/11/01 02:15:27;;;;;;;9.48;3.85;;;14.90;99.90;;;;;;5007290;28;20044;-72
2022/11/01 02:18:24;;;;;;;10.60;3.90;;;15.00;99.90;;;;;;5041362;28;20495;-73
2022/11/01 02:21:14;;;;;;;6.90;3.10;;;15.00;99.90;;;;;;5036564;28;20056;-72
2022/11/01 02:24:01;;;;;;;6.85;2.70;;;15.00;99.90;;;;;;5022873;28;20049;-71
2022/11/01 02:26:53;;;;;;;9.40;3.90;;;15.00;99.90;;;;;;5022598;28;20045;-72
2022/11/01 02:29:38;;;;;;;8.85;4.00;;;15.00;99.90;;;;;;5021370;28;20043;-71
2022/11/01 02:32:16;;;;;;;5.22;3.03;;;15.00;99.90;;;;;;5036619;28;20041;-72
2022/11/01 02:34:51;;;;;;;9.07;3.35;;;14.90;99.90;;;;;;5026316;28;20056;-72
2022/11/01 02:37:28;;;;;;;6.57;3.13;;;14.90;99.90;;;;;;5010795;28;20311;-73
2022/11/01 02:40:00;;;;;;;9.43;3.50;;;14.90;99.90;;;;;;5026867;28;20091;-71
2022/11/01 02:42:35;;;;;;;5.18;2.70;;;15.00;99.90;;;;;;5023599;28;20040;-72
2022/11/01 02:45:09;;;;;;;5.53;2.95;;;15.00;99.90;;;;;;5043377;28;20052;-72
2022/11/01 02:47:38;;;;;;;7.95;2.80;;;15.10;99.90;;;;;;5044561;28;20048;-72
2022/11/01 02:50:08;;;;;;;12.18;3.67;;;15.10;99.90;;;;;;5011380;28;20052;-71
2022/11/01 02:52:39;;;;;;;4.43;2.38;;;15.20;99.90;;;;;;5016621;28;20045;-71
2022/11/01 02:55:28;;;;;;;6.55;2.67;;;15.20;99.90;;;;;;5031951;28;20056;-72
2022/11/01 02:58:13;;;;;;;5.85;3.05;;;15.30;99.90;;;;;;5028115;28;20079;-72
2022/11/01 03:00:41;;;;;;;6.70;2.97;;;15.30;99.90;;;;;;5013452;28;20044;-71
2022/11/01 03:03:14;;;;;;;6.97;3.55;;;15.30;99.90;;;;;;5028492;28;20037;-71
2022/11/01 03:05:59;;;;;;;7.70;3.30;;;15.30;99.90;;;;;;5011700;28;20040;-71
2022/11/01 03:08:35;;;;;;;7.95;3.30;;;15.40;99.90;;;;;;5041434;28;20040;-72
2022/11/01 03:11:10;;;;;;;7.35;2.70;;;15.40;99.90;;;;;;5024053;28;20040;-71
2022/11/01 03:14:07;;;;;;;7.78;3.17;;;15.40;99.90;;;;;;5024663;28;20045;-71
2022/11/01 03:16:50;;;;;;;7.32;2.90;;;15.40;99.90;;;;;;5043272;28;20345;-71
2022/11/01 03:19:44;;;;;;;6.78;2.83;;;15.40;99.90;;;;;;5044944;28;20029;-72
2022/11/01 03:22:27;;;;;;;7.50;2.47;;;15.40;99.90;;;;;;5026795;28;21228;-72
2022/11/01 03:25:39;;;;;;;9.45;3.83;;;15.40;99.90;;;;;;5043205;28;20037;-71
2022/11/01 03:28:18;;;;;;;8.80;3.00;;;15.50;99.90;;;;;;5025634;28;20037;-72
2022/11/01 03:30:50;;;;;;;5.78;2.47;;;15.50;99.90;;;;;;5023585;28;20041;-71
2022/11/01 03:33:18;;;;;;;6.78;2.72;;;15.50;99.90;;;;;;5025736;28;20037;-71
2022/11/01 03:35:48;;;;;;;10.80;3.60;;;15.60;99.90;;;;;;5010039;28;20048;-71
2022/11/01 03:38:22;;;;;;;6.63;2.65;;;15.60;99.90;;;;;;5044108;28;20041;-71
2022/11/01 03:40:56;;;;;;;6.90;2.50;;;15.60;99.90;;;;;;5026283;28;20479;-72
2022/11/01 03:43:25;;;;;;;6.18;1.90;;;15.60;99.90;;;;;;5025647;28;20459;-70
2022/11/01 03:45:53;;;;;;;6.07;2.63;;;15.60;99.90;;;;;;5025378;28;20056;-71
2022/11/01 03:48:19;;;;;;;5.60;2.15;;;15.60;99.90;;;;;;5025956;28;20025;-71
2022/11/01 03:50:51;;;;;;;3.30;1.92;;;15.60;99.90;;;;;;5009001;28;20041;-71
2022/11/01 03:53:18;;;;;;;6.45;2.80;;;15.60;99.90;;;;;;5040857;28;20032;-71
2022/11/01 03:55:44;;;;;;;4.88;2.50;;;15.60;99.90;;;;;;5043329;28;20644;-71
2022/11/01 03:58:11;;;;;;;5.00;2.05;;;15.70;99.90;;;;;;5025538;28;20032;-72
2022/11/01 04:00:40;;;;;;;8.57;2.97;;;15.60;99.90;;;;;;5007496;28;20032;-71
2022/11/01 04:03:07;;;;;;;6.50;3.15;;;15.70;99.90;;;;;;5039572;28;20495;-71
2022/11/01 04:05:34;;;;;;;8.02;3.42;;;15.70;99.90;;;;;;5041501;28;20048;-72
2022/11/01 04:08:01;;;;;;;9.77;3.20;;;15.70;99.90;;;;;;5043658;28;20037;-71
2022/11/01 04:10:28;;;;;;;4.80;2.13;;;15.70;99.90;;;;;;5022449;28;20485;-72
2022/11/01 04:12:55;;;;;;;4.57;2.72;;;15.70;99.90;;;;;;5023515;28;20507;-71
2022/11/01 04:21:08;;;;;;;5.10;2.10;;;15.90;99.90;;;;;;5021055;28;20037;-71
2022/11/01 04:23:35;;;;;;;6.43;2.17;;;15.90;99.90;;;;;;5022645;28;20045;-71
2022/11/01 04:26:03;;;;;;;3.55;1.45;;;15.80;99.90;;;;;;5042118;28;20029;-72
2022/11/01 04:28:29;;;;;;;4.40;1.73;;;15.80;99.90;;;;;;5039952;28;20037;-71
2022/11/01 04:30:55;;;;;;;5.75;2.13;;;15.90;99.90;;;;;;5038557;28;20059;-72
2022/11/01 04:33:22;;;;;;;7.03;1.80;;;15.80;99.90;;;;;;5004207;28;20042;-70
2022/11/01 04:35:48;;;;;;;4.03;1.40;;;15.80;99.90;;;;;;5024990;28;20033;-71
2022/11/01 04:38:15;;;;;;;6.18;1.63;;;15.70;99.90;;;;;;5042878;28;20041;-72
2022/11/01 04:40:42;;;;;;;3.70;1.10;;;15.70;99.90;;;;;;5042790;28;20051;-72
2022/11/01 04:43:10;;;;;;;5.57;1.60;;;15.60;99.90;;;;;;5043087;28;20381;-71
2022/11/01 04:45:36;;;;;;;3.63;1.02;;;15.60;99.90;;;;;;5029989;28;20059;-71
2022/11/01 04:48:15;;;;;;;2.88;0.98;;;15.50;99.90;;;;;;5039138;28;20307;-71
2022/11/01 04:50:44;;;;;;;1.88;0.65;;;15.50;99.90;;;;;;5021167;28;20037;-72
2022/11/01 04:53:10;;;;;;;6.15;0.70;;;15.40;99.90;;;;;;5040795;28;20045;-71
2022/11/01 04:55:37;;;;;;;1.83;0.60;;;15.30;99.90;;;;;;5042038;28;20052;-72
2022/11/01 04:58:05;;;;;;;1.83;0.65;;;15.30;99.90;;;;;;5041214;28;20033;-71
2022/11/01 05:00:32;;;;;;;3.80;0.50;;;15.20;99.90;;;;;;5039551;28;20037;-72
2022/11/01 05:03:01;;;;;;;4.75;0.50;;;15.10;99.90;;;;;;5039686;28;20043;-71
2022/11/01 05:05:27;;;;;;;1.73;0.30;;;15.10;99.90;;;;;;5043698;28;20037;-71
2022/11/01 05:08:04;;;;;;;2.15;0.80;;;15.00;99.90;;;;;;5040971;28;20053;-71
2022/11/01 05:10:31;;;;;;;1.35;0.40;;;14.90;99.90;;;;;;5039380;28;20044;-71
2022/11/01 05:12:58;;;;;;;2.35;0.40;;;14.80;99.90;;;;;;5041882;28;20043;-71
2022/11/01 05:15:24;;;;;;;2.13;0.47;;;14.80;99.90;;;;;;5043756;28;20033;-72
2022/11/01 05:17:51;;;;;;;2.45;0.47;;;14.70;99.90;;;;;;5041747;28;20037;-70
2022/11/01 05:20:17;;;;;;;2.88;0.75;;;14.60;99.90;;;;;;5023990;28;20492;-71
2022/11/01 05:22:44;;;;;;;1.10;0.25;;;14.60;99.90;;;;;;5040186;28;20108;-70
2022/11/01 05:25:10;;;;;;;1.00;0.30;;;14.50;99.90;;;;;;5039905;28;20518;-71
2022/11/01 05:27:37;;;;;;;1.67;0.30;;;14.40;99.90;;;;;;5008607;28;20638;-71
2022/11/01 05:30:05;;;;;;;4.15;0.22;;;14.30;99.90;;;;;;5021531;28;20049;-71
2022/11/01 05:32:31;;;;;;;0.80;0.30;;;14.30;99.90;;;;;;5024498;28;20063;-71
2022/11/01 05:34:58;;;;;;;1.17;0.10;;;14.20;99.90;;;;;;5040045;28;20528;-71
2022/11/01 05:37:24;;;;;;;1.08;0.20;;;14.10;99.90;;;;;;5022890;28;20041;-71
2022/11/01 05:39:50;;;;;;;0.90;0.20;;;14.00;99.90;;;;;;5021299;28;20044;-70
2022/11/01 05:42:17;;;;;;;1.60;0.20;;;14.00;99.90;;;;;;5006070;28;20579;-71
2022/11/01 05:44:43;;;;;;;0.60;0.20;;;13.90;99.90;;;;;;5040720;28;20037;-71
2022/11/01 05:47:09;;;;;;;2.00;0.25;;;13.90;99.90;;;;;;5040027;28;20052;-72
2022/11/01 05:49:35;;;;;;;3.22;0.30;;;13.90;99.90;;;;;;5040823;28;20040;-71
2022/11/01 05:52:02;;;;;;;2.08;0.30;;;13.80;99.90;;;;;;5019872;28;20041;-71
2022/11/01 05:54:28;;;;;;;1.67;0.20;;;13.90;99.90;;;;;;5039819;28;20399;-72
2022/11/01 05:56:55;;;;;;;1.00;0.13;;;13.90;99.90;;;;;;5040853;28;20048;-71
2022/11/01 05:59:21;;;;;;;2.28;0.38;;;13.90;99.90;;;;;;5039820;28;20040;-72
2022/11/01 06:01:47;;;;;;;2.20;0.30;;;13.90;99.90;;;;;;5003147;28;20059;-71
2022/11/01 06:04:13;;;;;;;1.08;0.20;;;13.90;99.90;;;;;;5041662;28;20107;-71
2022/11/01 06:06:40;;;;;;;1.15;0.20;;;13.80;99.90;;;;;;5040747;28;20404;-71
2022/11/01 06:09:06;;;;;;;1.55;0.30;;;13.80;99.90;;;;;;5044808;28;20041;-72
2022/11/01 06:11:32;;;;;;;1.55;0.22;;;13.70;99.90;;;;;;5039336;28;20405;-72
2022/11/01 06:13:59;;;;;;;3.38;0.20;;;13.70;99.90;;;;;;5043396;28;20547;-72
2022/11/01 06:16:25;;;;;;;2.53;0.30;;;13.60;99.90;;;;;;5043613;28;20417;-71
2022/11/01 06:18:52;;;;;;;1.85;0.30;;;13.60;99.90;;;;;;5043691;28;20058;-71
2022/11/01 06:21:21;;;;;;;4.95;0.30;;;13.50;99.90;;;;;;5023373;28;20515;-71
2022/11/01 06:23:51;;;;;;;2.33;0.30;;;13.50;99.90;;;;;;5016055;28;20037;-72
2022/11/01 06:26:18;;;;;;;2.80;0.30;;;13.50;99.90;;;;;;5043562;28;20032;-71
2022/11/01 06:28:45;;;;;;;2.10;0.30;;;13.40;99.90;;;;;;5042796;28;20089;-73
2022/11/01 06:31:12;;;;;;;2.38;0.30;;;13.40;99.90;;;;;;5025812;28;20049;-72
2022/11/01 06:33:38;;;;;;;4.97;0.40;;;13.50;99.90;;;;;;5009621;28;20045;-72
2022/11/01 06:36:06;;;;;;;3.75;0.20;;;13.40;99.90;;;;;;5026353;28;20476;-72
2022/11/01 06:38:32;;;;;;;3.72;1.02;;;13.40;99.90;;;;;;5043653;28;20055;-73
2022/11/01 06:40:58;;;;;;;7.78;1.08;;;13.40;99.90;;;;;;5042406;28;20043;-72
2022/11/01 06:43:25;;;;;;;1.95;0.55;;;13.50;99.90;;;;;;5045642;28;20454;-72
2022/11/01 06:45:51;;;;;;;2.40;0.40;;;13.60;99.90;;;;;;5044668;28;20059;-71
2022/11/01 06:48:17;;;;;;;1.73;0.30;;;13.60;99.90;;;;;;5042895;28;20037;-72
2022/11/01 06:50:44;;;;;;;2.10;0.63;;;13.60;99.90;;;;;;5045160;28;20421;-72
2022/11/01 06:53:10;;;;;;;3.22;0.40;;;13.50;99.90;;;;;;5042496;28;20045;-71
2022/11/01 06:55:36;;;;;;;7.35;0.57;;;13.40;99.90;;;;;;5042975;28;20059;-71
2022/11/01 06:58:03;;;;;;;7.25;2.13;;;13.40;99.90;;;;;;5042074;28;20052;-72
2022/11/01 07:00:30;;;;;;;5.05;0.82;;;13.40;99.90;;;;;;5040744;28;20041;-71
2022/11/01 07:03:01;;;;;;;7.15;2.00;;;13.30;99.90;;;;;;5043523;28;20037;-71
2022/11/01 07:05:28;;;;;;;4.03;0.95;;;13.30;99.90;;;;;;5025020;28;20036;-73
2022/11/01 07:07:55;;;;;;;4.13;0.50;;;13.20;99.90;;;;;;5040478;28;20032;-72
2022/11/01 07:10:21;;;;;;;2.75;0.30;;;13.20;99.90;;;;;;5022462;28;20049;-72
2022/11/01 07:12:48;;;;;;;7.85;0.70;;;13.20;99.90;;;;;;5041116;28;20329;-73
2022/11/01 07:15:14;;;;;;;6.85;0.63;;;13.20;99.90;;;;;;5042111;28;20045;-71
2022/11/01 07:17:40;;;;;;;3.15;0.43;;;13.20;99.90;;;;;;5024675;28;20521;-73
2022/11/01 07:20:07;;;;;;;3.80;0.50;;;13.20;99.90;;;;;;5023018;28;20041;-72
2022/11/01 07:22:34;;;;;;;4.10;0.63;;;13.20;99.90;;;;;;5041093;28;20036;-72
2022/11/01 07:25:00;;;;;;;4.43;0.60;;;13.20;99.90;;;;;;5043948;28;20027;-71
2022/11/01 07:27:26;;;;;;;4.68;0.50;;;13.30;99.90;;;;;;5042187;28;20385;-71
2022/11/01 07:29:52;;;;;;;3.30;0.50;;;13.30;99.90;;;;;;5023533;28;20053;-72
2022/11/01 07:32:19;;;;;;;11.70;1.75;;;13.30;99.90;;;;;;5040675;28;20033;-70
2022/11/01 07:34:45;;;;;;;6.05;0.90;;;13.30;99.90;;;;;;5043660;28;20512;-70
2022/11/01 07:37:11;;;;;;;7.93;0.60;;;13.30;99.90;;;;;;5042167;28;20043;-70
2022/11/01 07:39:37;;;;;;;6.05;0.50;;;13.30;99.90;;;;;;5040787;28;20984;-70
2022/11/01 07:42:04;;;;;;;3.33;0.90;;;13.40;99.90;;;;;;5038385;28;20036;-71
2022/11/01 07:44:30;;;;;;;4.40;0.60;;;13.40;99.90;;;;;;5042476;28;20506;-72
2022/11/01 07:46:56;;;;;;;12.30;0.80;;;13.40;99.90;;;;;;5025048;28;20043;-71
2022/11/01 07:49:26;;;;;;;6.50;0.60;;;13.40;99.90;;;;;;5041888;28;20033;-71
2022/11/01 07:51:52;;;;;;;3.90;0.50;;;13.50;99.90;;;;;;5037386;28;20476;-72
2022/11/01 07:54:18;;;;;;;4.32;0.55;;;13.50;99.90;;;;;;5023790;28;20041;-71
2022/11/01 07:56:46;;;;;;;7.03;0.60;;;13.50;99.90;;;;;;5022039;28;20087;-72
2022/11/01 07:59:12;;;;;;;6.15;0.57;;;13.50;99.90;;;;;;5042125;28;20060;-73
2022/11/01 08:01:38;;;;;;;6.68;0.40;;;13.60;99.90;;;;;;5020159;28;20045;-72
2022/11/01 08:04:05;;;;;;;5.82;0.80;;;13.60;99.90;;;;;;5007701;28;20425;-73
2022/11/01 08:06:31;;;;;;;10.85;0.70;;;13.60;99.90;;;;;;5023700;28;20399;-74
2022/11/01 08:08:57;;;;;;;4.32;0.90;;;13.70;99.90;;;;;;5040266;28;20037;-73
2022/11/01 08:11:23;;;;;;;6.22;0.60;;;13.70;99.90;;;;;;5038354;28;20036;-72
2022/11/01 08:13:50;;;;;;;6.78;0.90;;;13.70;99.90;;;;;;5027132;28;20399;-73
2022/11/01 08:16:17;;;;;;;11.82;1.35;;;13.80;99.90;;;;;;5042832;28;20437;-71
2022/11/01 08:18:43;;;;;;;8.38;0.90;;;13.70;99.90;;;;;;5040327;28;20044;-71
2022/11/01 08:21:11;;;;;;;7.97;1.02;;;13.80;99.90;;;;;;5037905;28;20043;-72
2022/11/01 08:23:37;;;;;;;6.93;0.50;;;13.80;99.90;;;;;;5039782;28;20037;-71
2022/11/01 08:26:05;;;;;;;4.53;0.60;;;13.80;99.90;;;;;;5023418;28;20044;-71
2022/11/01 08:28:31;;;;;;;9.85;0.90;;;13.80;99.90;;;;;;5021454;28;20044;-71
2022/11/01 08:30:57;;;;;;;9.35;0.85;;;13.80;99.90;;;;;;5037934;28;20498;-70
2022/11/01 08:33:24;;;;;;;5.55;0.90;;;13.90;99.90;;;;;;5022840;28;20044;-71
2022/11/01 08:35:50;;;;;;;5.65;0.60;;;13.90;99.90;;;;;;5040350;28;20029;-71
2022/11/01 08:38:17;;;;;;;6.32;0.70;;;13.90;99.90;;;;;;5023368;28;20554;-71
2022/11/01 08:40:43;;;;;;;7.95;0.80;;;14.00;99.90;;;;;;5020813;28;20895;-71
2022/11/01 08:43:09;;;;;;;10.18;0.73;;;14.00;99.90;;;;;;5039017;28;20040;-71
2022/11/01 08:45:35;;;;;;;9.85;0.80;;;14.00;99.90;;;;;;5038139;28;20056;-71
2022/11/01 08:48:04;;;;;;;10.20;1.58;;;14.00;99.90;;;;;;5039094;28;20033;-72
2022/11/01 08:50:32;;;;;;;6.13;0.70;;;14.10;99.90;;;;;;5039390;28;20045;-71
2022/11/01 08:53:10;;;;;;;6.30;0.82;;;14.20;99.90;;;;;;5035629;28;20036;-71
2022/11/01 08:55:37;;;;;;;7.93;1.05;;;14.20;99.90;;;;;;5027079;28;20053;-71
2022/11/01 08:58:05;;;;;;;8.35;1.17;;;14.20;99.90;;;;;;5039974;28;20053;-71
2022/11/01 09:00:31;;;;;;;10.65;1.05;;;14.30;99.90;;;;;;5040765;28;20035;-71
2022/11/01 09:02:58;;;;;;;8.15;0.88;;;14.30;99.90;;;;;;5018348;28;20029;-71
2022/11/01 09:05:24;;;;;;;7.05;1.02;;;14.30;99.90;;;;;;5022979;28;20040;-70
2022/11/01 09:07:56;;;;;;;10.88;0.90;;;14.50;99.90;;;;;;5043587;28;20480;-72
2022/11/01 09:10:23;;;;;;;4.55;0.60;;;14.50;99.90;;;;;;5023765;28;20404;-71
2022/11/01 09:12:49;;;;;;;12.60;2.30;;;14.50;99.90;;;;;;5041518;28;20052;-71
2022/11/01 09:15:16;;;;;;;13.65;2.13;;;14.60;99.90;;;;;;5009333;28;20363;-72
2022/11/01 09:17:42;;;;;;;13.23;1.15;;;14.60;99.90;;;;;;5041738;28;21100;-71
2022/11/01 09:20:09;;;;;;;14.82;1.80;;;14.70;99.90;;;;;;5022047;28;20041;-72
2022/11/01 09:22:36;;;;;;;11.55;1.92;;;14.70;99.90;;;;;;5037654;28;20558;-72
2022/11/01 09:25:06;;;;;;;10.82;0.82;;;14.70;99.90;;;;;;5039761;28;20468;-72
2022/11/01 09:27:32;;;;;;;6.53;1.10;;;14.70;99.90;;;;;;5039821;28;20503;-72
2022/11/01 09:29:59;;;;;;;7.57;0.98;;;14.80;99.90;;;;;;5022709;28;20033;-72
2022/11/01 09:32:28;;;;;;;9.60;1.17;;;14.80;99.90;;;;;;5043275;28;20051;-71
2022/11/01 09:34:54;;;;;;;7.32;0.90;;;14.80;99.90;;;;;;5043758;28;20029;-72
2022/11/01 09:37:20;;;;;;;9.18;1.20;;;14.90;99.90;;;;;;5021923;28;20049;-72
2022/11/01 09:39:47;;;;;;;5.70;0.60;;;15.00;99.90;;;;;;5020610;28;20514;-72
2022/11/01 09:42:34;;;;;;;11.00;1.30;;;15.00;99.90;;;;;;5042706;28;20037;-72
2022/11/01 09:45:17;;;;;;;15.55;1.60;;;15.20;99.90;;;;;;5046205;28;20029;-72
2022/11/01 09:47:52;;;;;;;8.32;1.33;;;15.50;99.90;;;;;;5025081;28;20048;-72
2022/11/01 09:50:24;;;;;;;8.55;1.15;;;15.60;99.90;;;;;;5041984;28;20052;-73
2022/11/01 09:52:53;;;;;;;5.88;0.70;;;15.80;99.90;;;;;;5042710;28;20087;-73
2022/11/01 09:55:43;;;;;;;10.98;1.27;;;16.10;99.90;;;;;;5025811;28;20053;-73
2022/11/01 09:58:24;;;;;;;10.30;1.20;;;16.40;99.90;;;;;;5043764;28;20491;-74
2022/11/01 10:01:03;;;;;;;8.48;1.00;;;16.60;99.90;;;;;;5041986;28;20475;-73
2022/11/01 10:03:42;;;;;;;8.07;1.23;;;16.80;99.90;;;;;;5023049;28;20509;-73
2022/11/01 10:06:19;;;;;;;10.70;1.10;;;16.80;99.90;;;;;;5043801;28;20071;-72
2022/11/01 10:09:11;;;;;;;5.57;0.65;;;16.90;99.90;;;;;;5040182;28;20040;-72
2022/11/01 10:12:16;;;;;;;10.32;1.95;;;17.10;99.90;;;;;;5021678;28;20535;-73
2022/11/01 10:14:55;;;;;;;7.22;1.27;;;17.40;99.90;;;;;;5039487;28;20045;-73
2022/11/01 10:17:28;;;;;;;10.98;1.33;;;17.60;99.90;;;;;;5023218;28;20053;-72
2022/11/01 10:19:55;;;;;;;7.82;1.00;;;17.70;99.90;;;;;;5022458;28;20037;-72
2022/11/01 10:22:31;;;;;;;9.70;0.90;;;17.80;99.90;;;;;;5041256;28;20480;-72
2022/11/01 10:25:19;;;;;;;4.40;0.60;;;18.00;99.90;;;;;;5024391;28;20040;-72
2022/11/01 10:27:52;;;;;;;6.72;1.17;;;18.20;99.90;;;;;;5043096;28;20045;-72
2022/11/01 10:30:19;;;;;;;10.93;1.40;;;18.50;99.90;;;;;;5041167;28;20033;-72
2022/11/01 10:32:50;;;;;;;10.60;0.90;;;18.70;99.90;;;;;;5040909;28;20036;-73
2022/11/01 10:35:28;;;;;;;5.32;0.70;;;18.80;99.90;;;;;;5042582;28;20037;-72
2022/11/01 10:38:13;;;;;;;8.27;0.70;;;19.00;99.90;;;;;;5024539;28;20033;-72
2022/11/01 10:40:46;;;;;;;5.97;0.82;;;19.20;99.90;;;;;;5040500;28;20475;-73
2022/11/01 10:43:17;;;;;;;10.48;1.13;;;19.30;99.90;;;;;;5043424;28;20159;-72
2022/11/01 10:45:46;;;;;;;6.80;1.15;;;19.00;99.90;;;;;;5009956;28;20516;-73
2022/11/01 10:48:22;;;;;;;5.25;0.90;;;18.60;99.90;;;;;;5043196;28;20037;-72
2022/11/01 10:50:49;;;;;;;8.75;1.10;;;18.10;99.90;;;;;;5008447;28;20045;-72
2022/11/01 10:53:18;;;;;;;12.00;1.05;;;17.70;99.90;;;;;;5041515;28;20140;-73
2022/11/01 10:55:51;;;;;;;6.60;0.70;;;17.40;99.90;;;;;;5043886;28;20087;-72
2022/11/01 10:58:33;;;;;;;10.82;1.00;;;17.20;99.90;;;;;;5043190;28;20047;-73
2022/11/01 11:01:02;;;;;;;6.07;0.90;;;17.00;99.90;;;;;;5037282;28;20037;-72
2022/11/01 11:03:30;;;;;;;6.55;1.02;;;16.80;99.90;;;;;;5040675;28;20484;-72
2022/11/01 11:06:00;;;;;;;12.15;1.25;;;16.60;99.90;;;;;;5025459;28;20040;-72
2022/11/01 11:08:26;;;;;;;7.75;0.82;;;16.50;99.90;;;;;;5007447;28;20033;-72
2022/11/01 11:10:56;;;;;;;8.15;1.13;;;16.40;99.90;;;;;;5040512;28;20037;-71
2022/11/01 11:13:25;;;;;;;7.97;1.25;;;16.30;99.90;;;;;;5018579;28;20049;-71
2022/11/01 11:15:59;;;;;;;6.28;0.80;;;16.30;99.90;;;;;;5042767;28;20041;-71
2022/11/01 11:18:29;;;;;;;7.45;1.05;;;16.30;99.90;;;;;;5041660;28;20063;-72
2022/11/01 11:21:03;;;;;;;5.47;0.82;;;16.20;99.90;;;;;;5021953;28;20041;-71
2022/11/01 11:23:33;;;;;;;8.63;0.80;;;16.20;99.90;;;;;;5037595;28;20041;-72
2022/11/01 11:26:19;;;;;;;8.18;0.80;;;16.20;99.90;;;;;;5040313;28;20392;-71
2022/11/01 11:28:53;;;;;;;7.18;1.27;;;16.20;99.90;;;;;;5041413;28;20067;-72
2022/11/01 11:31:24;;;;;;;4.07;0.70;;;16.20;99.90;;;;;;5036547;28;20045;-71
2022/11/01 11:34:31;;;;;;;6.67;0.83;;;16.20;99.90;;;;;;5025551;28;20044;-71
2022/11/01 11:36:58;;;;;;;10.85;0.90;;;16.10;99.90;;;;;;5038278;28;20041;-71
2022/11/01 11:39:31;;;;;;;8.40;0.70;;;16.10;99.90;;;;;;5025686;28;20041;-71
2022/11/01 11:42:17;;;;;;;7.70;1.10;;;16.10;99.90;;;;;;5041636;28;20039;-72
2022/11/01 11:44:46;;;;;;;8.02;0.85;;;16.20;99.90;;;;;;5045697;28;20041;-73
2022/11/01 11:47:36;;;;;;;7.45;0.90;;;16.20;99.90;;;;;;5042505;28;20696;-73
2022/11/01 11:50:31;;;;;;;10.60;1.27;;;16.20;99.90;;;;;;5040677;28;20077;-73
2022/11/01 11:52:59;;;;;;;8.57;1.95;;;16.30;99.90;;;;;;5040605;28;20045;-72
2022/11/01 11:55:36;;;;;;;8.13;1.80;;;16.60;99.90;;;;;;5042713;28;20048;-73
2022/11/01 11:58:11;;;;;;;6.60;0.68;;;17.10;99.90;;;;;;5039884;28;20488;-73
2022/11/01 12:00:42;;;;;;;4.80;0.80;;;17.60;99.90;;;;;;5039546;28;20041;-74
2022/11/01 12:03:13;;;;;;;8.30;1.30;;;17.80;99.90;;;;;;5005908;28;20033;-74
2022/11/01 12:05:51;;;;;;;9.27;1.42;;;17.60;99.90;;;;;;5038826;28;20037;-71
2022/11/01 12:08:30;;;;;;;10.68;0.80;;;17.40;99.90;;;;;;5039192;28;21242;-70
2022/11/01 12:10:58;;;;;;;7.28;0.85;;;17.20;99.90;;;;;;5041135;28;20044;-71
2022/11/01 12:13:36;;;;;;;10.43;2.22;;;17.00;99.90;;;;;;5039033;28;20490;-70
2022/11/01 12:16:07;;;;;;;10.00;1.88;;;16.80;99.90;;;;;;5042616;28;20493;-71
2022/11/01 12:18:33;;;;;;;10.38;2.28;;;16.80;99.90;;;;;;5041178;28;20068;-70
2022/11/01 12:21:00;;;;;;;9.40;1.60;;;16.70;99.90;;;;;;5040539;28;20037;-71
2022/11/01 12:23:34;;;;;;;9.80;2.08;;;16.70;99.90;;;;;;5037858;28;20032;-70
2022/11/01 12:26:05;;;;;;;9.45;0.90;;;16.70;99.90;;;;;;5009275;28;20033;-73
2022/11/01 12:28:42;;;;;;;6.95;0.90;;;16.70;99.90;;;;;;5040135;28;20485;-73
2022/11/01 12:31:19;;;;;;;7.13;0.90;;;16.70;99.90;;;;;;5040344;28;20507;-73
2022/11/01 12:33:53;;;;;;;9.43;0.95;;;16.70;99.90;;;;;;5041729;28;20043;-73
2022/11/01 12:36:29;;;;;;;9.07;0.70;;;16.60;99.90;;;;;;5042193;28;20033;-73
2022/11/01 12:39:39;;;;;;;5.45;0.73;;;16.60;99.90;;;;;;5042126;28;20028;-73
2022/11/01 12:42:10;;;;;;;8.85;0.98;;;16.60;99.90;;;;;;5039801;28;20025;-73
2022/11/01 12:44:44;;;;;;;5.28;0.73;;;16.60;99.90;;;;;;5006134;28;20037;-73
2022/11/01 12:47:20;;;;;;;4.57;0.57;;;16.60;99.90;;;;;;5040072;28;20055;-73
2022/11/01 12:49:56;;;;;;;6.88;0.73;;;16.70;99.90;;;;;;5039313;28;20044;-73
2022/11/01 12:52:41;;;;;;;4.45;0.55;;;16.70;99.90;;;;;;5021570;28;20045;-73
2022/11/01 12:55:19;;;;;;;6.97;0.90;;;16.80;99.90;;;;;;5023227;28;20452;-73
2022/11/01 12:57:45;;;;;;;5.82;0.88;;;16.80;99.90;;;;;;5040903;28;20041;-72
2022/11/01 13:00:17;;;;;;;6.82;0.60;;;16.90;99.90;;;;;;5039012;28;20029;-74
2022/11/01 13:03:11;;;;;;;7.35;0.75;;;17.00;99.90;;;;;;5039580;28;20045;-73
2022/11/01 13:06:25;;;;;;;5.53;0.77;;;17.20;99.90;;;;;;5008238;28;20045;-72
2022/11/01 13:09:22;;;;;;;6.63;0.60;;;17.20;99.90;;;;;;5048558;28;20053;-72
2022/11/01 13:12:06;;;;;;;4.60;0.60;;;17.20;99.90;;;;;;5036264;28;21172;-73